Time;durP1;ratioP1;P1;durP2;ratioP2;P2;SDS_P1;SDS_P2;PMS_P1;PMS_P2;Temp;Humidity;BMP_temperature;BMP_pressure;BME280_temperature;BME280_humidity;BME280_pressure;Samples;Min_cycle;Max_cycle;Signal;HPM_P1;HPM_P2
2023/10/02 00:01:10;;;;;;;7.38;1.08;;;21.90;56.10;;;;;;6244779;23;20167;-88
2023/10/02 00:03:41;;;;;;;0.57;0.20;;;21.90;56.20;;;;;;6244060;23;20169;-88
2023/10/02 00:06:16;;;;;;;1.17;0.93;;;21.90;56.40;;;;;;6242912;23;20216;-90
2023/10/02 00:08:51;;;;;;;0.40;0.40;;;21.80;56.30;;;;;;6242625;23;20160;-90
2023/10/02 00:11:37;;;;;;;1.20;0.95;;;21.80;56.20;;;;;;6244490;23;20545;-90
2023/10/02 00:14:18;;;;;;;1.05;0.55;;;21.80;56.20;;;;;;6246745;23;20444;-92
2023/10/02 00:17:03;;;;;;;0.50;0.50;;;21.80;56.50;;;;;;6244619;23;20165;-89
2023/10/02 00:19:39;;;;;;;0.50;0.35;;;21.80;56.50;;;;;;6219843;23;20180;-90
2023/10/02 00:22:34;;;;;;;1.02;0.25;;;21.80;56.50;;;;;;6219169;23;20301;-91
2023/10/02 00:25:02;;;;;;;0.30;0.30;;;21.70;56.80;;;;;;6245519;23;20198;-91
2023/10/02 00:27:32;;;;;;;0.95;0.40;;;21.70;57.30;;;;;;6245604;23;20162;-89
2023/10/02 00:30:02;;;;;;;1.75;1.17;;;21.70;57.50;;;;;;6245583;23;20166;-90
2023/10/02 00:32:31;;;;;;;1.10;1.00;;;21.50;58.60;;;;;;6244587;23;20167;-91
2023/10/02 00:35:00;;;;;;;0.52;0.50;;;21.50;59.00;;;;;;6246526;23;20516;-90
2023/10/02 00:37:44;;;;;;;2.35;0.57;;;21.40;59.40;;;;;;6244643;23;20220;-88
2023/10/02 00:40:20;;;;;;;0.20;0.20;;;21.40;59.30;;;;;;6246510;23;20163;-89
2023/10/02 00:42:49;;;;;;;0.20;0.20;;;21.40;59.30;;;;;;6243698;23;20216;-88
2023/10/02 00:45:18;;;;;;;0.55;0.52;;;21.40;59.40;;;;;;6245538;23;20171;-89
2023/10/02 00:47:47;;;;;;;0.68;0.25;;;21.30;59.60;;;;;;6216417;23;20900;-90
2023/10/02 00:50:20;;;;;;;0.20;0.20;;;21.30;59.40;;;;;;6219377;23;20178;-90
2023/10/02 00:52:59;;;;;;;0.55;0.55;;;21.30;59.40;;;;;;6243626;23;20219;-90
2023/10/02 00:55:32;;;;;;;0.28;0.28;;;21.30;59.70;;;;;;6244849;23;20212;-89
2023/10/02 00:58:02;;;;;;;0.10;0.10;;;21.30;60.20;;;;;;6244880;23;20228;-91
2023/10/02 01:00:37;;;;;;;2.67;0.60;;;21.20;60.00;;;;;;6245417;23;20166;-89
2023/10/02 01:03:08;;;;;;;3.35;1.85;;;21.20;60.60;;;;;;6244302;23;20161;-90
2023/10/02 01:05:47;;;;;;;1.10;0.90;;;21.20;60.80;;;;;;6245068;23;20177;-92
2023/10/02 01:08:42;;;;;;;0.45;0.45;;;21.20;60.50;;;;;;6245501;23;20158;-88
2023/10/02 01:11:14;;;;;;;0.88;0.80;;;21.10;60.70;;;;;;6246138;23;20163;-89
2023/10/02 01:13:44;;;;;;;1.65;1.33;;;21.10;61.40;;;;;;6195321;23;20165;-91
2023/10/02 01:16:17;;;;;;;3.72;0.40;;;21.10;61.00;;;;;;6243704;23;20194;-89
2023/10/02 01:18:48;;;;;;;0.30;0.30;;;21.10;61.70;;;;;;6243697;23;20836;-89
2023/10/02 01:21:24;;;;;;;0.63;0.38;;;21.10;61.30;;;;;;6219391;23;20205;-92
2023/10/02 01:24:10;;;;;;;0.20;0.20;;;21.10;61.70;;;;;;6245379;23;20189;-88
2023/10/02 01:26:42;;;;;;;0.55;0.55;;;21.00;61.70;;;;;;6245328;23;20162;-89
2023/10/02 01:29:11;;;;;;;0.63;0.63;;;21.00;61.70;;;;;;6244525;23;20171;-89
2023/10/02 01:31:52;;;;;;;1.00;0.57;;;21.00;63.00;;;;;;6244179;23;20173;-91
2023/10/02 01:34:33;;;;;;;0.50;0.50;;;21.00;62.90;;;;;;6239569;23;20166;-89
2023/10/02 01:37:32;;;;;;;0.20;0.20;;;20.90;62.90;;;;;;6217461;23;20190;-89
2023/10/02 01:40:28;;;;;;;0.20;0.20;;;20.90;63.00;;;;;;6223507;23;20616;-90
2023/10/02 01:42:45;;;;;;;0.20;0.20;;;20.90;63.70;;;;;;6244219;23;20173;-90
2023/10/02 01:45:13;;;;;;;0.55;0.55;;;20.90;63.30;;;;;;6245059;23;20181;-90
2023/10/02 01:47:42;;;;;;;0.50;0.50;;;20.80;64.90;;;;;;6216911;23;20500;-88
2023/10/02 01:50:11;;;;;;;0.55;0.52;;;20.80;64.80;;;;;;6243004;23;20181;-89
2023/10/02 01:52:43;;;;;;;2.30;0.85;;;20.80;65.00;;;;;;6245491;23;20175;-90
2023/10/02 01:55:29;;;;;;;0.20;0.20;;;20.70;65.20;;;;;;6244205;23;20920;-90
2023/10/02 01:58:16;;;;;;;0.43;0.30;;;20.70;65.00;;;;;;6243212;23;20544;-89
2023/10/02 02:00:46;;;;;;;0.28;0.28;;;20.70;64.80;;;;;;6245038;23;20162;-88
2023/10/02 02:03:15;;;;;;;1.40;0.35;;;20.60;64.60;;;;;;6218266;23;20240;-88
2023/10/02 02:05:46;;;;;;;0.20;0.20;;;20.60;64.50;;;;;;6216872;23;20170;-88
2023/10/02 02:08:24;;;;;;;0.80;0.40;;;20.60;64.30;;;;;;6243182;23;20632;-88
2023/10/02 02:11:14;;;;;;;0.20;0.20;;;20.50;64.30;;;;;;6240953;23;20600;-90
2023/10/02 02:13:46;;;;;;;2.13;0.88;;;20.50;64.40;;;;;;6243285;23;20608;-89
2023/10/02 02:16:17;;;;;;;0.82;0.82;;;20.50;64.30;;;;;;6244606;23;20269;-89
2023/10/02 02:18:48;;;;;;;0.30;0.30;;;20.40;64.30;;;;;;6218418;23;20162;-90
2023/10/02 02:21:18;;;;;;;0.60;0.60;;;20.50;64.40;;;;;;6244003;23;20581;-89
2023/10/02 02:23:48;;;;;;;0.98;0.93;;;20.40;64.30;;;;;;6244462;23;20163;-90
2023/10/02 02:26:24;;;;;;;0.20;0.20;;;20.40;64.30;;;;;;6244486;23;20185;-89
2023/10/02 02:28:55;;;;;;;10.93;0.75;;;20.40;64.50;;;;;;6244584;23;20166;-89
2023/10/02 02:31:39;;;;;;;0.30;0.30;;;20.40;64.50;;;;;;6244710;23;20154;-90
2023/10/02 02:34:14;;;;;;;0.32;0.32;;;20.40;64.30;;;;;;6245366;23;20158;-90
2023/10/02 02:36:47;;;;;;;0.82;0.57;;;20.40;64.30;;;;;;6244771;23;20239;-90
2023/10/02 02:39:22;;;;;;;0.20;0.20;;;20.30;64.60;;;;;;6244889;23;20604;-87
2023/10/02 02:44:40;;;;;;;3.22;1.10;;;20.30;64.70;;;;;;6245378;23;20159;-89
2023/10/02 02:47:10;;;;;;;0.40;0.40;;;20.30;65.00;;;;;;6244503;23;20381;-89
2023/10/02 02:49:52;;;;;;;0.30;0.30;;;20.30;65.40;;;;;;6244663;23;20171;-91
2023/10/02 02:52:24;;;;;;;0.43;0.43;;;20.30;65.40;;;;;;6244192;23;20155;-91
2023/10/02 02:55:04;;;;;;;0.50;0.37;;;20.30;65.60;;;;;;6243188;23;20186;-90
2023/10/02 02:57:38;;;;;;;0.70;0.70;;;20.30;65.50;;;;;;6244739;23;20229;-89
2023/10/02 03:00:31;;;;;;;0.77;0.70;;;20.30;65.50;;;;;;6244685;23;20159;-90
2023/10/02 03:03:29;;;;;;;0.33;0.33;;;20.40;65.60;;;;;;6243644;23;20241;-90
2023/10/02 03:05:52;;;;;;;2.00;0.90;;;20.30;65.80;;;;;;6224065;23;20173;-89
2023/10/02 03:08:22;;;;;;;0.30;0.30;;;20.30;66.60;;;;;;6247024;23;20167;-89
2023/10/02 03:10:57;;;;;;;0.83;0.70;;;20.30;66.60;;;;;;6246439;23;20167;-89
2023/10/02 03:13:28;;;;;;;0.40;0.40;;;20.30;66.50;;;;;;6246678;23;20444;-90
2023/10/02 03:16:06;;;;;;;0.30;0.30;;;20.20;66.60;;;;;;6246757;23;20183;-92
2023/10/02 03:18:36;;;;;;;0.40;0.40;;;20.20;66.90;;;;;;6247692;23;20257;-91
2023/10/02 03:21:14;;;;;;;1.90;0.60;;;20.20;67.00;;;;;;6244520;23;20190;-91
2023/10/02 03:23:43;;;;;;;0.40;0.40;;;20.20;66.60;;;;;;6246906;23;20234;-90
2023/10/02 03:26:26;;;;;;;0.70;0.70;;;20.20;66.70;;;;;;6221038;23;20196;-90
2023/10/02 03:29:03;;;;;;;0.40;0.30;;;20.20;66.80;;;;;;6246897;23;20246;-89
2023/10/02 03:31:43;;;;;;;1.93;0.77;;;20.20;66.90;;;;;;6246071;23;20151;-89
2023/10/02 03:34:33;;;;;;;0.80;0.80;;;20.20;67.10;;;;;;6246318;23;20238;-90
2023/10/02 03:37:13;;;;;;;0.53;0.30;;;20.20;67.70;;;;;;6244879;23;20194;-92
2023/10/02 03:39:59;;;;;;;1.03;0.87;;;20.10;68.20;;;;;;6248126;23;20190;-90
2023/10/02 03:42:32;;;;;;;0.63;0.50;;;20.00;68.80;;;;;;6245758;23;20159;-91
2023/10/02 03:45:04;;;;;;;0.50;0.50;;;20.00;69.30;;;;;;6246352;23;20230;-90
2023/10/02 03:47:34;;;;;;;1.30;0.83;;;20.00;69.40;;;;;;6244564;23;20162;-88
2023/10/02 03:50:14;;;;;;;0.30;0.30;;;19.90;69.80;;;;;;6245406;23;20655;-89
2023/10/02 03:52:45;;;;;;;0.53;0.53;;;19.80;70.30;;;;;;6244978;23;20234;-89
2023/10/02 03:55:17;;;;;;;2.20;1.30;;;19.80;70.20;;;;;;6247848;23;20171;-89
2023/10/02 03:57:55;;;;;;;0.40;0.40;;;19.80;70.50;;;;;;6219118;23;20197;-88
2023/10/02 04:00:30;;;;;;;2.53;0.50;;;19.70;70.60;;;;;;6246826;23;20177;-90
2023/10/02 04:02:59;;;;;;;3.23;0.90;;;19.80;70.30;;;;;;6245914;23;20225;-89
2023/10/02 04:05:32;;;;;;;0.30;0.30;;;19.70;70.60;;;;;;6246879;23;20166;-89
2023/10/02 04:08:32;;;;;;;1.23;1.03;;;19.70;70.50;;;;;;6238504;23;20249;-88
2023/10/02 04:11:03;;;;;;;0.50;0.50;;;19.60;70.50;;;;;;6266817;22;20181;-88
2023/10/02 04:13:39;;;;;;;3.40;0.37;;;19.60;70.40;;;;;;6268714;23;20143;-88
2023/10/02 04:19:00;;;;;;;0.67;0.50;;;19.60;70.50;;;;;;6270532;23;20151;-89
2023/10/02 04:21:29;;;;;;;0.70;0.60;;;19.50;70.20;;;;;;6266515;22;20198;-87
2023/10/02 04:23:58;;;;;;;0.57;0.57;;;19.60;70.00;;;;;;6264285;23;20536;-90
2023/10/02 04:26:28;;;;;;;1.17;1.03;;;19.60;70.00;;;;;;6264731;23;20167;-92
2023/10/02 04:29:25;;;;;;;0.63;0.60;;;19.60;69.70;;;;;;6265437;23;20178;-90
2023/10/02 04:32:10;;;;;;;7.93;1.23;;;19.60;69.70;;;;;;6259966;23;20487;-90
2023/10/02 04:34:37;;;;;;;0.45;0.45;;;19.60;69.70;;;;;;6247823;23;20421;-90
2023/10/02 04:37:19;;;;;;;0.80;0.80;;;19.60;69.60;;;;;;6247947;23;20187;-90
2023/10/02 04:40:13;;;;;;;0.80;0.67;;;19.60;69.80;;;;;;6247049;23;20154;-90
2023/10/02 04:43:15;;;;;;;0.40;0.40;;;19.60;69.70;;;;;;6247311;23;20608;-91
2023/10/02 04:45:44;;;;;;;0.57;0.50;;;19.60;69.80;;;;;;6246544;23;20163;-91
2023/10/02 04:48:14;;;;;;;0.20;0.20;;;19.70;69.70;;;;;;6246649;23;20919;-89
2023/10/02 04:50:46;;;;;;;1.60;0.80;;;19.70;69.50;;;;;;6247615;23;20525;-89
2023/10/02 04:53:22;;;;;;;1.77;1.13;;;19.70;69.40;;;;;;6246381;23;20159;-90
2023/10/02 04:56:19;;;;;;;0.47;0.47;;;19.70;69.50;;;;;;6246854;23;20158;-90
2023/10/02 04:58:49;;;;;;;0.30;0.30;;;19.70;69.30;;;;;;6247701;23;20163;-91
2023/10/02 05:01:34;;;;;;;2.73;0.40;;;19.70;69.30;;;;;;6246223;23;20178;-88
2023/10/02 05:04:04;;;;;;;1.30;0.60;;;19.70;69.10;;;;;;6220380;23;20159;-88
2023/10/02 05:06:52;;;;;;;1.90;1.47;;;19.80;69.00;;;;;;6245210;23;20167;-93
2023/10/02 05:09:26;;;;;;;0.73;0.33;;;19.70;69.00;;;;;;6246211;23;20542;-89
2023/10/02 05:11:56;;;;;;;0.77;0.73;;;19.70;69.00;;;;;;6244977;23;20241;-91
2023/10/02 05:14:29;;;;;;;2.93;1.33;;;19.70;69.00;;;;;;6246679;23;20178;-92
2023/10/02 05:17:19;;;;;;;1.90;0.73;;;19.80;69.00;;;;;;6245745;23;20182;-91
2023/10/02 05:20:03;;;;;;;0.70;0.70;;;19.80;69.00;;;;;;6246406;23;20218;-91
2023/10/02 05:22:36;;;;;;;1.23;0.50;;;19.70;69.00;;;;;;6246078;23;20569;-91
2023/10/02 05:25:07;;;;;;;0.83;0.50;;;19.80;68.90;;;;;;6244676;23;20498;-90
2023/10/02 05:27:36;;;;;;;0.60;0.30;;;19.80;68.70;;;;;;6246078;23;20202;-91
2023/10/02 05:30:12;;;;;;;0.47;0.47;;;19.80;68.80;;;;;;6246194;23;20448;-93
2023/10/02 05:32:42;;;;;;;3.40;0.57;;;19.80;69.00;;;;;;6244915;23;20165;-90
2023/10/02 05:35:23;;;;;;;1.07;0.97;;;19.90;68.70;;;;;;6245305;23;20167;-90
2023/10/02 05:37:54;;;;;;;4.43;0.80;;;19.80;68.40;;;;;;6216455;23;20187;-89
2023/10/02 05:40:38;;;;;;;0.20;0.20;;;19.80;68.40;;;;;;6245329;23;20166;-91
2023/10/02 05:43:17;;;;;;;0.57;0.40;;;19.90;68.60;;;;;;6245578;23;20182;-94
2023/10/02 05:45:50;;;;;;;0.40;0.40;;;19.90;68.40;;;;;;6218868;23;20168;-90
2023/10/02 05:51:15;;;;;;;1.70;0.40;;;19.90;68.10;;;;;;6246617;23;20648;-90
2023/10/02 05:53:53;;;;;;;0.67;0.50;;;19.90;68.80;;;;;;6219131;23;20190;-88
2023/10/02 05:56:25;;;;;;;0.30;0.30;;;20.00;67.80;;;;;;6220032;23;20197;-89
2023/10/02 05:58:55;;;;;;;0.30;0.30;;;20.00;67.90;;;;;;6219250;23;20193;-91
2023/10/02 06:01:26;;;;;;;0.40;0.40;;;20.00;67.80;;;;;;6217778;23;20181;-90
2023/10/02 06:03:57;;;;;;;0.57;0.57;;;20.00;67.60;;;;;;6245819;23;20257;-90
2023/10/02 06:06:35;;;;;;;0.60;0.60;;;20.00;67.50;;;;;;6245476;23;20163;-92
2023/10/02 06:09:13;;;;;;;0.20;0.20;;;20.10;67.50;;;;;;6246150;23;20154;-92
2023/10/02 06:12:05;;;;;;;0.40;0.40;;;20.10;67.50;;;;;;6243545;23;20579;-90
2023/10/02 06:14:38;;;;;;;0.57;0.57;;;20.10;67.30;;;;;;6245343;23;20220;-94
2023/10/02 06:17:11;;;;;;;0.40;0.40;;;20.10;67.10;;;;;;6242257;23;20762;-89
2023/10/02 06:19:44;;;;;;;0.40;0.40;;;20.20;67.20;;;;;;6244596;23;20165;-90
2023/10/02 06:22:15;;;;;;;0.20;0.20;;;20.20;67.00;;;;;;6245448;23;20197;-90
2023/10/02 06:24:45;;;;;;;1.97;0.83;;;20.30;66.80;;;;;;6250045;23;20158;-85
2023/10/02 06:27:16;;;;;;;0.93;0.60;;;20.30;66.50;;;;;;6243508;23;20163;-91
2023/10/02 06:29:48;;;;;;;15.98;0.90;;;20.30;66.10;;;;;;6246565;23;20568;-89
2023/10/02 06:32:22;;;;;;;0.93;0.70;;;20.40;65.80;;;;;;6218673;23;20154;-91
2023/10/02 06:34:56;;;;;;;2.07;0.97;;;20.40;65.00;;;;;;6247118;23;20608;-89
2023/10/02 06:37:35;;;;;;;2.17;1.60;;;20.40;65.00;;;;;;6245953;23;20159;-90
2023/10/02 06:40:06;;;;;;;2.95;0.75;;;20.40;64.80;;;;;;6247138;23;20158;-90
2023/10/02 06:42:48;;;;;;;1.48;1.05;;;20.40;63.80;;;;;;6247437;23;20162;-89
2023/10/02 06:45:18;;;;;;;4.18;1.42;;;20.50;64.00;;;;;;6247543;23;20588;-90
2023/10/02 06:47:48;;;;;;;0.30;0.30;;;20.60;63.60;;;;;;6247516;23;20208;-91
2023/10/02 06:50:27;;;;;;;0.70;0.70;;;20.60;63.70;;;;;;6221235;23;20245;-90
2023/10/02 06:52:59;;;;;;;5.00;0.30;;;20.70;63.60;;;;;;6247907;23;20163;-90
2023/10/02 06:55:29;;;;;;;1.10;0.68;;;20.60;63.20;;;;;;6247387;23;20214;-87
2023/10/02 06:57:58;;;;;;;0.40;0.32;;;20.70;63.20;;;;;;6247271;23;20198;-92
2023/10/02 07:00:36;;;;;;;7.63;0.77;;;20.80;63.10;;;;;;6248226;23;20197;-91
2023/10/02 07:03:08;;;;;;;0.75;0.60;;;20.80;62.80;;;;;;6248501;23;20462;-91
2023/10/02 07:05:39;;;;;;;1.15;1.05;;;20.90;63.70;;;;;;6247844;23;20628;-90
2023/10/02 07:08:18;;;;;;;0.40;0.40;;;20.90;62.50;;;;;;6248199;23;20234;-91
2023/10/02 07:10:48;;;;;;;0.57;0.57;;;21.00;62.50;;;;;;6223787;23;20611;-90
2023/10/02 07:13:20;;;;;;;3.13;0.85;;;21.00;62.50;;;;;;6250542;23;20166;-92
2023/10/02 07:15:55;;;;;;;0.73;0.73;;;21.10;62.20;;;;;;6248138;23;20612;-91
2023/10/02 07:18:35;;;;;;;0.73;0.52;;;21.10;63.00;;;;;;6248079;23;20210;-92
2023/10/02 07:21:07;;;;;;;0.57;0.57;;;21.20;61.80;;;;;;6247130;23;20931;-90
2023/10/02 07:23:38;;;;;;;0.30;0.30;;;21.30;61.40;;;;;;6249156;23;20190;-92
2023/10/02 07:26:14;;;;;;;1.95;0.45;;;21.40;61.50;;;;;;6247743;23;20169;-90
2023/10/02 07:28:50;;;;;;;0.85;0.82;;;21.40;60.80;;;;;;6248105;23;20170;-92
2023/10/02 07:31:20;;;;;;;0.30;0.30;;;21.40;60.40;;;;;;6247467;23;20235;-90
2023/10/02 07:33:48;;;;;;;0.20;0.20;;;21.50;60.60;;;;;;6247923;23;20228;-91
2023/10/02 07:36:17;;;;;;;0.45;0.45;;;21.50;60.50;;;;;;6248277;23;20536;-92
2023/10/02 07:38:48;;;;;;;0.47;0.45;;;21.50;60.50;;;;;;6247950;23;20284;-91
2023/10/02 07:41:23;;;;;;;0.63;0.60;;;21.50;60.30;;;;;;6246808;23;20178;-90
2023/10/02 07:43:53;;;;;;;0.20;0.20;;;21.50;60.20;;;;;;6249286;23;20173;-92
2023/10/02 07:46:23;;;;;;;0.40;0.40;;;21.60;60.30;;;;;;6247731;23;20254;-92
2023/10/02 07:48:57;;;;;;;0.30;0.30;;;21.50;59.90;;;;;;6248254;23;20524;-89
2023/10/02 07:51:35;;;;;;;0.28;0.28;;;21.60;59.80;;;;;;6246654;23;20220;-92
2023/10/02 07:54:08;;;;;;;0.57;0.57;;;21.60;59.70;;;;;;6224408;23;20551;-92
2023/10/02 07:56:36;;;;;;;0.40;0.40;;;21.60;59.80;;;;;;6246250;23;20174;-90
2023/10/02 07:59:07;;;;;;;0.43;0.30;;;21.60;59.80;;;;;;6247973;23;20194;-90
2023/10/02 08:01:39;;;;;;;1.10;1.00;;;21.60;59.70;;;;;;6247745;23;20189;-90
2023/10/02 08:04:08;;;;;;;0.30;0.30;;;21.60;60.60;;;;;;6247075;23;20151;-88
2023/10/02 08:06:37;;;;;;;1.20;0.40;;;21.70;59.90;;;;;;6247106;23;20167;-92
2023/10/02 08:09:36;;;;;;;1.05;0.47;;;21.70;59.90;;;;;;6247807;23;20165;-92
2023/10/02 08:12:08;;;;;;;0.30;0.30;;;21.70;59.90;;;;;;6246777;23;20159;-92
2023/10/02 08:14:42;;;;;;;0.77;0.60;;;21.80;59.90;;;;;;6223239;23;20660;-92
2023/10/02 08:17:21;;;;;;;0.30;0.30;;;21.80;59.80;;;;;;6247820;23;20190;-92
2023/10/02 08:19:56;;;;;;;0.80;0.73;;;21.90;59.80;;;;;;6223905;23;20647;-94
2023/10/02 08:22:35;;;;;;;0.20;0.20;;;21.90;59.90;;;;;;6247012;23;20210;-92
2023/10/02 08:25:13;;;;;;;0.35;0.35;;;21.90;59.80;;;;;;6224514;23;20161;-90
2023/10/02 08:27:44;;;;;;;0.35;0.35;;;22.00;59.80;;;;;;6246736;23;20173;-89
2023/10/02 08:30:27;;;;;;;1.23;0.63;;;22.00;59.40;;;;;;6247443;23;20506;-89
2023/10/02 08:33:05;;;;;;;0.40;0.40;;;22.00;59.50;;;;;;6246800;23;20159;-88
2023/10/02 08:35:51;;;;;;;0.98;0.50;;;22.10;59.50;;;;;;6247527;23;20170;-89
2023/10/02 08:38:22;;;;;;;0.52;0.52;;;22.20;59.30;;;;;;6245942;23;20175;-90
2023/10/02 08:40:58;;;;;;;0.30;0.30;;;22.20;59.00;;;;;;6221563;23;20154;-89
2023/10/02 08:43:28;;;;;;;0.82;0.82;;;22.30;59.20;;;;;;6222301;23;20158;-91
2023/10/02 08:45:57;;;;;;;0.75;0.70;;;22.40;59.00;;;;;;6219659;23;20612;-90
2023/10/02 08:48:31;;;;;;;0.32;0.32;;;22.40;58.90;;;;;;6247173;23;20201;-91
2023/10/02 08:51:03;;;;;;;0.30;0.30;;;22.50;58.90;;;;;;6246125;23;20832;-91
2023/10/02 08:53:33;;;;;;;1.15;0.85;;;22.60;58.90;;;;;;6247571;23;20159;-90
2023/10/02 08:56:23;;;;;;;0.20;0.20;;;22.70;59.40;;;;;;6246594;23;20246;-90
2023/10/02 08:59:15;;;;;;;0.20;0.20;;;22.70;58.80;;;;;;6246729;23;20187;-91
2023/10/02 09:01:41;;;;;;;0.20;0.20;;;22.80;58.70;;;;;;6245583;23;20182;-91
2023/10/02 09:04:23;;;;;;;0.57;0.52;;;22.80;58.40;;;;;;6246442;23;20171;-90
2023/10/02 09:06:58;;;;;;;2.20;0.40;;;22.90;58.10;;;;;;6246061;23;20623;-90
2023/10/02 09:09:36;;;;;;;14.13;0.60;;;23.00;57.80;;;;;;6247477;23;20162;-91
2023/10/02 09:12:15;;;;;;;0.20;0.20;;;22.90;57.90;;;;;;6245897;23;20158;-93
2023/10/02 09:14:44;;;;;;;3.80;0.60;;;23.00;58.10;;;;;;6245616;23;20166;-89
2023/10/02 09:17:20;;;;;;;0.55;0.50;;;23.00;57.90;;;;;;6246935;23;20189;-89
2023/10/02 09:19:56;;;;;;;0.30;0.30;;;23.10;58.00;;;;;;6219747;23;20212;-90
2023/10/02 09:22:27;;;;;;;0.20;0.20;;;23.10;58.10;;;;;;6247638;23;20218;-93
2023/10/02 09:25:12;;;;;;;0.40;0.32;;;23.10;58.10;;;;;;6247316;23;20163;-91
2023/10/02 09:27:57;;;;;;;0.63;0.63;;;23.10;58.10;;;;;;6247072;23;20161;-92
2023/10/02 09:30:37;;;;;;;1.17;1.08;;;23.10;58.10;;;;;;6221665;23;20238;-90
2023/10/02 09:33:14;;;;;;;0.90;0.50;;;23.20;58.20;;;;;;6246084;23;20163;-89
2023/10/02 09:36:00;;;;;;;0.47;0.47;;;23.20;58.10;;;;;;6247703;23;20178;-89
2023/10/02 09:38:51;;;;;;;0.65;0.47;;;23.20;58.00;;;;;;6247406;23;20175;-92
2023/10/02 09:41:20;;;;;;;3.00;0.68;;;23.30;58.00;;;;;;6247256;23;20225;-92
2023/10/02 09:43:51;;;;;;;0.45;0.45;;;23.40;57.60;;;;;;6248184;23;20241;-87
2023/10/02 09:46:23;;;;;;;19.65;1.15;;;23.40;57.20;;;;;;6249866;23;20225;-90
2023/10/02 09:49:01;;;;;;;0.57;0.45;;;23.40;57.30;;;;;;6247088;23;20178;-89
2023/10/02 09:52:09;;;;;;;1.95;0.60;;;23.50;57.40;;;;;;6246317;23;20166;-87
2023/10/02 09:54:42;;;;;;;0.30;0.30;;;23.60;57.40;;;;;;6244857;23;20171;-89
2023/10/02 09:57:17;;;;;;;3.13;1.15;;;23.60;57.10;;;;;;6245635;23;20210;-89
2023/10/02 09:59:46;;;;;;;0.30;0.30;;;23.60;56.50;;;;;;6245637;23;20226;-92
2023/10/02 10:10:50;;;;;;;0.25;0.25;;;23.70;56.00;;;;;;6245792;23;20159;-90
2023/10/02 10:13:31;;;;;;;0.20;0.20;;;23.70;55.70;;;;;;6243846;23;20194;-89
2023/10/02 10:16:40;;;;;;;0.20;0.20;;;23.80;55.80;;;;;;6245685;23;20159;-91
2023/10/02 10:19:30;;;;;;;0.90;0.30;;;23.80;56.00;;;;;;6247267;23;20158;-88
2023/10/02 10:22:04;;;;;;;0.35;0.35;;;23.80;55.10;;;;;;6245495;23;20198;-90
2023/10/02 10:24:34;;;;;;;0.32;0.32;;;23.90;55.10;;;;;;6247342;23;20169;-89
2023/10/02 10:27:03;;;;;;;0.90;0.45;;;24.00;55.40;;;;;;6245434;23;20163;-87
2023/10/02 10:29:38;;;;;;;0.40;0.40;;;24.00;55.40;;;;;;6245297;23;20253;-89
2023/10/02 10:32:23;;;;;;;2.10;1.52;;;24.00;55.40;;;;;;6246786;23;20166;-90
2023/10/02 10:35:11;;;;;;;0.30;0.30;;;24.00;55.40;;;;;;6244959;23;20195;-89
2023/10/02 10:37:48;;;;;;;0.40;0.28;;;24.00;54.90;;;;;;6248540;23;20198;-94
2023/10/02 10:40:44;;;;;;;1.20;0.68;;;24.00;55.00;;;;;;6246936;23;20213;-93
2023/10/02 10:43:13;;;;;;;2.08;0.88;;;24.00;54.80;;;;;;6247213;23;20213;-92
2023/10/02 10:45:41;;;;;;;0.20;0.20;;;24.00;54.90;;;;;;6246080;23;20202;-86
2023/10/02 10:48:22;;;;;;;0.40;0.32;;;24.00;55.00;;;;;;6248805;23;20558;-88
2023/10/02 10:50:59;;;;;;;0.30;0.30;;;24.10;55.00;;;;;;6245011;23;20192;-91
2023/10/02 10:53:29;;;;;;;0.95;0.80;;;24.10;55.00;;;;;;6246929;23;20162;-92
2023/10/02 10:56:05;;;;;;;0.20;0.20;;;24.10;55.00;;;;;;6244352;23;20611;-90
2023/10/02 10:58:35;;;;;;;1.95;1.02;;;24.10;55.00;;;;;;6247133;23;20528;-89
2023/10/02 11:01:05;;;;;;;5.47;1.00;;;24.20;55.10;;;;;;6217578;23;20199;-89
2023/10/02 11:03:38;;;;;;;0.55;0.43;;;24.20;55.20;;;;;;6246300;23;20159;-90
2023/10/02 11:06:10;;;;;;;3.83;0.45;;;24.30;54.90;;;;;;6244961;23;20597;-89
2023/10/02 11:08:40;;;;;;;0.38;0.35;;;24.30;54.70;;;;;;6245838;23;20194;-89
2023/10/02 11:11:18;;;;;;;0.90;0.47;;;24.30;54.70;;;;;;6246613;23;20166;-90
2023/10/02 11:13:54;;;;;;;0.35;0.30;;;24.40;54.70;;;;;;6244808;23;20213;-85
2023/10/02 11:16:32;;;;;;;0.45;0.45;;;24.40;54.60;;;;;;6242816;23;20192;-89
2023/10/02 11:19:21;;;;;;;0.47;0.45;;;24.40;54.20;;;;;;6245565;23;20237;-92
2023/10/02 11:25:18;;;;;;;0.30;0.20;;;24.50;53.90;;;;;;6240442;23;20174;-88
2023/10/02 11:27:57;;;;;;;0.60;0.60;;;24.50;54.20;;;;;;6246089;23;20786;-91
2023/10/02 11:30:36;;;;;;;1.45;0.68;;;24.50;53.90;;;;;;6222296;23;20159;-89
2023/10/02 11:33:07;;;;;;;0.93;0.55;;;24.50;53.80;;;;;;6255424;23;20162;-89
2023/10/02 11:35:41;;;;;;;0.30;0.30;;;24.60;54.00;;;;;;6269989;22;20170;-87
2023/10/02 11:38:10;;;;;;;0.20;0.20;;;24.60;53.70;;;;;;6271444;22;20178;-89
2023/10/02 11:40:43;;;;;;;0.38;0.25;;;24.70;53.80;;;;;;6271564;22;20253;-87
2023/10/02 11:43:15;;;;;;;0.95;0.90;;;24.80;53.80;;;;;;6271064;22;20162;-88
2023/10/02 11:45:47;;;;;;;0.40;0.40;;;24.90;53.50;;;;;;6245942;22;20177;-87
2023/10/02 11:48:16;;;;;;;0.40;0.40;;;24.90;53.60;;;;;;6246759;22;20185;-89
2023/10/02 11:50:50;;;;;;;0.60;0.38;;;25.00;53.30;;;;;;6246123;22;20178;-86
2023/10/02 11:53:21;;;;;;;0.38;0.38;;;25.00;53.30;;;;;;6269339;22;20157;-87
2023/10/02 11:55:50;;;;;;;0.30;0.30;;;25.00;52.80;;;;;;6245320;22;20173;-86
2023/10/02 11:58:19;;;;;;;0.20;0.20;;;25.00;52.80;;;;;;6270250;23;20166;-88
2023/10/02 12:00:48;;;;;;;0.70;0.70;;;25.00;52.90;;;;;;6244826;23;20199;-88
2023/10/02 12:03:18;;;;;;;0.68;0.65;;;25.00;53.00;;;;;;6270404;22;20178;-89
2023/10/02 12:05:50;;;;;;;0.20;0.20;;;25.00;53.00;;;;;;6270920;22;20201;-88
2023/10/02 12:08:22;;;;;;;0.30;0.30;;;25.10;52.70;;;;;;6270719;22;20150;-87
2023/10/02 12:10:55;;;;;;;2.10;0.63;;;25.10;52.70;;;;;;6260409;23;20158;-89
2023/10/02 12:13:24;;;;;;;0.30;0.30;;;25.10;52.70;;;;;;6246736;23;20154;-90
2023/10/02 12:15:54;;;;;;;0.55;0.55;;;25.10;52.40;;;;;;6246339;23;20213;-89
2023/10/02 12:18:26;;;;;;;0.38;0.38;;;25.20;52.60;;;;;;6248372;23;20217;-90
2023/10/02 12:21:02;;;;;;;0.25;0.25;;;25.20;52.60;;;;;;6249453;23;20197;-93
2023/10/02 12:23:33;;;;;;;1.85;0.47;;;25.20;52.70;;;;;;6247844;23;20189;-88
2023/10/02 12:26:04;;;;;;;1.15;0.73;;;25.20;52.80;;;;;;6247770;23;20588;-88
2023/10/02 12:28:32;;;;;;;0.85;0.47;;;25.20;52.80;;;;;;6245897;23;20170;-88
2023/10/02 12:31:09;;;;;;;0.98;0.57;;;25.20;52.70;;;;;;6247169;23;20173;-88
2023/10/02 12:33:39;;;;;;;0.43;0.43;;;25.20;52.70;;;;;;6246193;23;20158;-90
2023/10/02 12:36:14;;;;;;;0.88;0.60;;;25.20;52.80;;;;;;6245462;23;20173;-89
2023/10/02 12:38:44;;;;;;;0.38;0.38;;;25.20;52.80;;;;;;6247325;23;20189;-90
2023/10/02 12:41:14;;;;;;;0.63;0.52;;;25.20;52.80;;;;;;6252813;23;20197;-92
2023/10/02 12:43:44;;;;;;;0.45;0.45;;;25.30;52.90;;;;;;6269144;23;20162;-90
2023/10/02 12:46:15;;;;;;;0.47;0.32;;;25.20;52.70;;;;;;6267483;23;20186;-92
2023/10/02 12:48:46;;;;;;;1.10;0.80;;;25.30;52.60;;;;;;6268916;23;20154;-92
2023/10/02 12:51:17;;;;;;;0.73;0.73;;;25.30;52.80;;;;;;6268343;23;20534;-89
2023/10/02 12:53:46;;;;;;;1.08;0.85;;;25.30;52.80;;;;;;6267955;23;20188;-91
2023/10/02 12:56:18;;;;;;;0.93;0.50;;;25.40;52.80;;;;;;6266616;23;20182;-91
2023/10/02 12:58:49;;;;;;;0.30;0.30;;;25.40;52.60;;;;;;6265154;23;20218;-89
2023/10/02 13:01:18;;;;;;;0.88;0.45;;;25.40;52.60;;;;;;6266179;23;20186;-90
2023/10/02 13:03:47;;;;;;;0.40;0.40;;;25.40;51.90;;;;;;6264537;23;20185;-91
2023/10/02 13:06:17;;;;;;;0.63;0.63;;;25.40;52.10;;;;;;6262881;23;20226;-89
2023/10/02 13:08:49;;;;;;;0.65;0.63;;;25.40;52.00;;;;;;6246381;23;20163;-89
2023/10/02 13:11:19;;;;;;;0.75;0.73;;;25.40;52.00;;;;;;6246990;23;20166;-90
2023/10/02 13:13:51;;;;;;;2.22;0.52;;;25.40;51.70;;;;;;6246886;23;20620;-89
2023/10/02 13:16:21;;;;;;;0.45;0.45;;;25.40;52.10;;;;;;6246175;23;20167;-91
2023/10/02 13:18:50;;;;;;;0.35;0.35;;;25.60;52.70;;;;;;6245432;23;20608;-90
2023/10/02 13:21:24;;;;;;;2.70;0.40;;;25.90;52.80;;;;;;6246902;23;20592;-94
2023/10/02 13:23:54;;;;;;;0.30;0.30;;;26.20;51.60;;;;;;6244770;23;20162;-88
2023/10/02 13:26:23;;;;;;;0.28;0.28;;;26.20;50.80;;;;;;6245582;23;20608;-91
2023/10/02 13:28:54;;;;;;;0.75;0.75;;;26.20;51.00;;;;;;6245570;23;20174;-90
2023/10/02 13:31:24;;;;;;;0.30;0.30;;;26.20;50.80;;;;;;6245853;23;20155;-91
2023/10/02 13:33:55;;;;;;;1.30;0.63;;;26.30;50.70;;;;;;6245391;23;20163;-91
2023/10/02 13:36:30;;;;;;;0.70;0.38;;;26.10;50.50;;;;;;6246380;23;20174;-93
2023/10/02 13:38:59;;;;;;;0.57;0.47;;;26.20;50.50;;;;;;6243733;23;20657;-89
2023/10/02 13:41:29;;;;;;;5.15;1.08;;;26.10;50.30;;;;;;6244118;23;20194;-89
2023/10/02 13:44:00;;;;;;;0.85;0.50;;;26.10;50.40;;;;;;6245566;23;20171;-88
2023/10/02 13:46:29;;;;;;;0.32;0.32;;;26.00;50.20;;;;;;6245531;23;20177;-89